createdAt,value
2022-07-31T00:00:08.207Z,0.00
2022-07-31T00:01:08.191Z,0.00
2022-07-31T00:02:08.142Z,0.00
2022-07-31T00:03:08.197Z,0.00
2022-07-31T00:04:08.105Z,0.00
2022-07-31T00:05:08.081Z,0.00
2022-07-31T00:06:08.058Z,0.00
2022-07-31T00:07:08.033Z,0.00
2022-07-31T00:08:08.037Z,0.00
2022-07-31T00:09:08.017Z,0.00
2022-07-31T00:10:07.982Z,0.00
2022-07-31T00:11:07.946Z,0.00
2022-07-31T00:12:07.926Z,0.00
2022-07-31T00:13:07.931Z,0.00
2022-07-31T00:14:07.887Z,0.00
2022-07-31T00:15:07.868Z,0.00
2022-07-31T00:16:07.850Z,0.00
2022-07-31T00:17:07.827Z,0.00
2022-07-31T00:18:07.806Z,0.00
2022-07-31T00:19:07.795Z,0.00
2022-07-31T00:20:07.779Z,0.00
2022-07-31T00:21:07.750Z,0.00
2022-07-31T00:22:07.725Z,0.00
2022-07-31T00:23:07.709Z,0.00
2022-07-31T00:24:07.709Z,0.00
2022-07-31T00:25:07.667Z,0.00
2022-07-31T00:26:07.653Z,0.00
2022-07-31T00:27:07.628Z,0.00
2022-07-31T00:28:07.612Z,0.00
2022-07-31T00:29:07.591Z,0.00
2022-07-31T00:30:07.563Z,0.00
2022-07-31T00:31:07.546Z,0.00
2022-07-31T00:32:07.527Z,0.00
2022-07-31T00:33:07.504Z,0.00
2022-07-31T00:34:07.484Z,0.00
2022-07-31T00:35:07.466Z,0.00
2022-07-31T00:36:07.449Z,0.00
2022-07-31T00:37:07.561Z,0.00
2022-07-31T00:38:26.165Z,0.00
2022-07-31T00:39:07.390Z,0.00
2022-07-31T00:40:07.370Z,0.00
2022-07-31T00:41:07.346Z,0.00
2022-07-31T00:42:07.331Z,0.00
2022-07-31T00:43:07.308Z,0.00
2022-07-31T00:44:07.284Z,0.00
2022-07-31T00:45:07.287Z,0.00
2022-07-31T00:46:07.243Z,0.00
2022-07-31T00:47:07.365Z,0.00
2022-07-31T00:48:07.224Z,0.00
2022-07-31T00:49:07.215Z,0.00
2022-07-31T00:50:07.180Z,0.00
2022-07-31T00:51:07.163Z,0.00
2022-07-31T00:52:07.155Z,0.00
2022-07-31T00:53:07.111Z,0.00
2022-07-31T00:54:07.088Z,0.00
2022-07-31T00:55:07.082Z,0.00
2022-07-31T00:56:07.073Z,0.00
2022-07-31T00:57:07.449Z,0.00
2022-07-31T00:58:07.025Z,0.00
2022-07-31T00:59:06.996Z,0.00
2022-07-31T01:00:06.971Z,0.00
2022-07-31T01:01:07.015Z,0.00
2022-07-31T01:02:06.947Z,0.00
2022-07-31T01:03:06.915Z,0.00
2022-07-31T01:04:06.899Z,0.00
2022-07-31T01:05:06.885Z,0.00
2022-07-31T01:06:06.857Z,0.00
2022-07-31T01:07:07.158Z,0.00
2022-07-31T01:08:06.819Z,0.00
2022-07-31T01:09:06.799Z,0.00
2022-07-31T01:10:06.779Z,0.00
2022-07-31T01:11:06.760Z,0.00
2022-07-31T01:12:06.740Z,0.00
2022-07-31T01:13:06.722Z,0.00
2022-07-31T01:14:06.713Z,0.00
2022-07-31T01:15:06.686Z,0.00
2022-07-31T01:16:06.671Z,0.00
2022-07-31T01:17:06.980Z,0.00
2022-07-31T01:18:06.622Z,0.00
2022-07-31T01:19:06.607Z,0.00
2022-07-31T01:20:06.587Z,0.00
2022-07-31T01:21:06.570Z,0.00
2022-07-31T01:22:06.572Z,0.00
2022-07-31T01:23:06.544Z,0.00
2022-07-31T01:24:06.505Z,0.00
2022-07-31T01:25:06.504Z,0.00
2022-07-31T01:26:06.481Z,0.00
2022-07-31T01:27:06.739Z,0.00
2022-07-31T01:28:06.433Z,0.00
2022-07-31T01:29:06.437Z,0.00
2022-07-31T01:30:06.418Z,0.00
2022-07-31T01:31:25.363Z,0.00
2022-07-31T01:32:06.351Z,0.00
2022-07-31T01:33:06.329Z,0.00
2022-07-31T01:34:06.314Z,0.00
2022-07-31T01:35:06.296Z,0.00
2022-07-31T01:36:06.278Z,0.00
2022-07-31T01:37:06.618Z,0.00
2022-07-31T01:38:06.236Z,0.00
2022-07-31T01:39:06.245Z,0.00
2022-07-31T01:40:06.198Z,0.00
2022-07-31T01:41:06.183Z,0.00
2022-07-31T01:42:06.453Z,0.00
2022-07-31T01:43:06.142Z,0.00
2022-07-31T01:44:06.129Z,0.00
2022-07-31T01:45:06.107Z,0.00
2022-07-31T01:46:06.083Z,0.00
2022-07-31T01:47:06.365Z,0.00
2022-07-31T01:48:06.045Z,0.00
2022-07-31T01:49:06.053Z,0.00
2022-07-31T01:50:06.006Z,0.00
2022-07-31T01:51:05.986Z,0.00
2022-07-31T01:52:06.300Z,0.00
2022-07-31T01:53:05.947Z,0.00
2022-07-31T01:54:05.925Z,0.00
2022-07-31T01:55:05.900Z,0.00
2022-07-31T01:56:05.885Z,0.00
2022-07-31T01:57:05.868Z,0.00
2022-07-31T01:58:05.864Z,0.00
2022-07-31T01:59:05.856Z,0.00
2022-07-31T02:00:05.805Z,0.00
2022-07-31T02:01:05.891Z,0.00
2022-07-31T02:02:06.285Z,0.00
2022-07-31T02:03:09.615Z,0.00
2022-07-31T02:04:05.726Z,0.00
2022-07-31T02:05:05.718Z,0.00
2022-07-31T02:06:05.691Z,0.00
2022-07-31T02:07:05.686Z,0.00
2022-07-31T02:08:05.649Z,0.00
2022-07-31T02:09:05.632Z,0.00
2022-07-31T02:10:05.626Z,0.00
2022-07-31T02:11:05.588Z,0.00
2022-07-31T02:12:09.638Z,0.00
2022-07-31T02:13:05.561Z,0.00
2022-07-31T02:14:05.534Z,0.00
2022-07-31T02:15:05.580Z,0.00
2022-07-31T02:16:05.522Z,0.00
2022-07-31T02:17:05.469Z,0.00
2022-07-31T02:18:05.473Z,0.00
2022-07-31T02:19:05.433Z,0.00
2022-07-31T02:20:05.414Z,0.00
2022-07-31T02:21:05.397Z,0.00
2022-07-31T02:22:05.822Z,0.00
2022-07-31T02:23:05.360Z,0.00
2022-07-31T02:24:05.335Z,0.00
2022-07-31T02:25:05.334Z,0.00
2022-07-31T02:26:05.306Z,0.00
2022-07-31T02:27:05.275Z,0.00
2022-07-31T02:28:05.261Z,0.00
2022-07-31T02:29:05.249Z,0.00
2022-07-31T02:30:05.215Z,0.00
2022-07-31T02:31:05.202Z,0.00
2022-07-31T02:32:05.187Z,0.00
2022-07-31T02:33:05.196Z,0.00
2022-07-31T02:34:05.148Z,0.00
2022-07-31T02:35:05.135Z,0.00
2022-07-31T02:36:05.114Z,0.00
2022-07-31T02:37:05.097Z,0.00
2022-07-31T02:38:05.119Z,0.00
2022-07-31T02:39:05.038Z,0.00
2022-07-31T02:40:05.022Z,0.00
2022-07-31T02:41:05.231Z,0.00
2022-07-31T02:42:05.387Z,0.00
2022-07-31T02:43:04.947Z,0.00
2022-07-31T02:44:04.937Z,0.00
2022-07-31T02:45:04.922Z,0.00
2022-07-31T02:46:04.920Z,0.00
2022-07-31T02:47:04.893Z,0.00
2022-07-31T02:48:04.854Z,0.00
2022-07-31T02:49:04.937Z,0.00
2022-07-31T02:50:04.812Z,0.00
2022-07-31T02:51:04.794Z,0.00
2022-07-31T02:52:05.185Z,0.00
2022-07-31T02:53:04.756Z,0.00
2022-07-31T02:54:04.734Z,0.00
2022-07-31T02:55:04.714Z,0.00
2022-07-31T02:56:04.809Z,0.00
2022-07-31T02:57:04.676Z,0.00
2022-07-31T02:58:04.651Z,0.00
2022-07-31T02:59:04.674Z,0.00
2022-07-31T03:00:04.624Z,0.00
2022-07-31T03:01:04.659Z,0.00
2022-07-31T03:02:04.978Z,0.00
2022-07-31T03:03:04.568Z,0.00
2022-07-31T03:04:04.532Z,0.00
2022-07-31T03:05:04.511Z,0.00
2022-07-31T03:06:04.498Z,0.00
2022-07-31T03:07:04.473Z,0.00
2022-07-31T03:08:04.451Z,0.00
2022-07-31T03:09:04.452Z,0.00
2022-07-31T03:10:04.438Z,0.00
2022-07-31T03:11:04.387Z,0.00
2022-07-31T03:12:05.192Z,0.00
2022-07-31T03:13:04.356Z,0.00
2022-07-31T03:14:04.327Z,0.00
2022-07-31T03:15:04.308Z,0.00
2022-07-31T03:16:04.289Z,0.00
2022-07-31T03:17:04.261Z,0.00
2022-07-31T03:18:08.468Z,0.00
2022-07-31T03:19:04.229Z,0.00
2022-07-31T03:20:04.214Z,0.00
2022-07-31T03:21:04.211Z,0.00
2022-07-31T03:22:04.574Z,0.00
2022-07-31T03:23:04.141Z,0.00
2022-07-31T03:24:04.126Z,0.00
2022-07-31T03:25:04.104Z,0.00
2022-07-31T03:26:04.101Z,0.00
2022-07-31T03:27:04.066Z,0.00
2022-07-31T03:28:04.072Z,0.00
2022-07-31T03:29:04.026Z,0.00
2022-07-31T03:30:04.009Z,0.00
2022-07-31T03:31:03.989Z,0.00
2022-07-31T03:32:04.269Z,0.00
2022-07-31T03:33:03.943Z,0.00
2022-07-31T03:34:03.945Z,0.00
2022-07-31T03:35:03.903Z,0.00
2022-07-31T03:36:03.882Z,0.00
2022-07-31T03:37:03.858Z,0.00
2022-07-31T03:38:38.265Z,0.00
2022-07-31T03:39:03.823Z,0.00
2022-07-31T03:40:03.805Z,0.00
2022-07-31T03:41:03.779Z,0.00
2022-07-31T03:42:04.155Z,0.00
2022-07-31T03:43:03.732Z,0.00
2022-07-31T03:44:03.720Z,0.00
2022-07-31T03:45:03.697Z,0.00
2022-07-31T03:46:03.690Z,5.63
2022-07-31T03:47:03.656Z,5.63
2022-07-31T03:48:03.663Z,5.63
2022-07-31T03:49:03.668Z,5.63
2022-07-31T03:50:03.610Z,5.63
2022-07-31T03:51:03.596Z,5.63
2022-07-31T03:52:07.478Z,5.63
2022-07-31T03:53:03.545Z,11.25
2022-07-31T03:54:03.512Z,11.25
2022-07-31T03:55:03.508Z,11.25
2022-07-31T03:56:03.482Z,11.25
2022-07-31T03:57:03.483Z,11.25
2022-07-31T03:58:03.438Z,11.25
2022-07-31T03:59:03.423Z,11.25
2022-07-31T04:00:03.445Z,11.25
2022-07-31T04:01:03.392Z,16.88
2022-07-31T04:02:03.556Z,16.88
2022-07-31T04:03:03.352Z,16.88
2022-07-31T04:04:03.317Z,16.88
2022-07-31T04:05:08.077Z,22.50
2022-07-31T04:06:03.277Z,22.50
2022-07-31T04:07:03.255Z,22.50
2022-07-31T04:08:03.252Z,22.50
2022-07-31T04:09:13.674Z,28.13
2022-07-31T04:10:03.192Z,28.13
2022-07-31T04:11:03.192Z,28.13
2022-07-31T04:12:03.581Z,28.13
2022-07-31T04:13:03.142Z,33.75
2022-07-31T04:14:03.112Z,33.75
2022-07-31T04:15:03.154Z,33.75
2022-07-31T04:16:03.076Z,39.38
2022-07-31T04:17:03.054Z,39.38
2022-07-31T04:18:03.031Z,45.00
2022-07-31T04:19:03.019Z,45.00
2022-07-31T04:20:05.677Z,50.63
2022-07-31T04:21:02.981Z,50.63
2022-07-31T04:22:03.466Z,56.25
2022-07-31T04:23:02.935Z,61.88
2022-07-31T04:24:02.916Z,61.88
2022-07-31T04:25:02.889Z,61.88
2022-07-31T04:26:02.868Z,67.50
2022-07-31T04:27:02.850Z,73.13
2022-07-31T04:28:02.856Z,78.75
2022-07-31T04:29:02.812Z,78.75
2022-07-31T04:30:03.065Z,73.13
2022-07-31T04:31:02.765Z,73.13
2022-07-31T04:32:03.092Z,73.13
2022-07-31T04:33:02.733Z,67.50
2022-07-31T04:34:02.720Z,67.50
2022-07-31T04:35:02.729Z,67.50
2022-07-31T04:36:02.687Z,73.13
2022-07-31T04:37:02.652Z,78.75
2022-07-31T04:38:02.635Z,78.75
2022-07-31T04:39:02.613Z,84.38
2022-07-31T04:40:02.600Z,90.00
2022-07-31T04:41:02.570Z,90.00
2022-07-31T04:42:02.807Z,90.00
2022-07-31T04:43:02.539Z,90.00
2022-07-31T04:44:02.526Z,90.00
2022-07-31T04:45:02.520Z,90.00
2022-07-31T04:46:02.472Z,90.00
2022-07-31T04:47:02.458Z,90.00
2022-07-31T04:48:02.443Z,95.63
2022-07-31T04:49:02.446Z,101.25
2022-07-31T04:50:02.397Z,101.25
2022-07-31T04:51:02.413Z,106.88
2022-07-31T04:52:02.630Z,112.50
2022-07-31T04:53:02.343Z,118.13
2022-07-31T04:54:02.326Z,123.75
2022-07-31T04:55:02.333Z,129.38
2022-07-31T04:56:02.296Z,135.00
2022-07-31T04:57:02.260Z,135.00
2022-07-31T04:58:02.249Z,140.63
2022-07-31T04:59:02.233Z,146.25
2022-07-31T05:00:02.209Z,146.25
2022-07-31T05:01:02.194Z,146.25
2022-07-31T05:02:02.495Z,151.88
2022-07-31T05:03:02.150Z,151.88
2022-07-31T05:04:02.160Z,151.88
2022-07-31T05:05:02.110Z,146.25
2022-07-31T05:06:02.106Z,146.25
2022-07-31T05:07:02.075Z,146.25
2022-07-31T05:08:02.053Z,146.25
2022-07-31T05:09:06.717Z,146.25
2022-07-31T05:10:02.019Z,146.25
2022-07-31T05:11:02.000Z,140.63
2022-07-31T05:12:02.328Z,140.63
2022-07-31T05:13:01.963Z,135.00
2022-07-31T05:14:01.950Z,129.38
2022-07-31T05:15:01.927Z,129.38
2022-07-31T05:16:01.913Z,123.75
2022-07-31T05:17:01.894Z,123.75
2022-07-31T05:18:01.871Z,129.38
2022-07-31T05:19:01.862Z,135.00
2022-07-31T05:20:01.914Z,140.63
2022-07-31T05:21:01.822Z,140.63
2022-07-31T05:22:02.575Z,140.63
2022-07-31T05:23:01.836Z,140.63
2022-07-31T05:24:01.773Z,140.63
2022-07-31T05:25:01.752Z,140.63
2022-07-31T05:26:01.731Z,146.25
2022-07-31T05:27:01.747Z,146.25
2022-07-31T05:28:01.709Z,151.88
2022-07-31T05:29:01.676Z,157.50
2022-07-31T05:30:01.660Z,157.50
2022-07-31T05:31:01.645Z,163.13
2022-07-31T05:32:01.703Z,163.13
2022-07-31T05:33:01.616Z,163.13
2022-07-31T05:34:01.589Z,157.50
2022-07-31T05:35:01.572Z,151.88
2022-07-31T05:36:01.551Z,146.25
2022-07-31T05:37:01.989Z,146.25
2022-07-31T05:38:01.552Z,146.25
2022-07-31T05:39:01.526Z,146.25
2022-07-31T05:40:01.491Z,146.25
2022-07-31T05:41:01.471Z,151.88
2022-07-31T05:42:01.899Z,151.88
2022-07-31T05:43:01.434Z,157.50
2022-07-31T05:44:01.415Z,163.13
2022-07-31T05:45:01.398Z,168.75
2022-07-31T05:46:01.390Z,180.00
2022-07-31T05:47:01.405Z,185.63
2022-07-31T05:48:01.372Z,191.25
2022-07-31T05:49:01.380Z,196.88
2022-07-31T05:50:01.335Z,208.13
2022-07-31T05:51:05.480Z,208.13
2022-07-31T05:52:01.545Z,213.75
2022-07-31T05:53:01.268Z,219.38
2022-07-31T05:54:01.272Z,225.00
2022-07-31T05:55:01.228Z,236.25
2022-07-31T05:56:01.210Z,247.50
2022-07-31T05:57:01.192Z,270.00
2022-07-31T05:58:01.177Z,281.25
2022-07-31T05:59:01.161Z,303.75
2022-07-31T06:00:02.019Z,320.63
2022-07-31T06:01:01.142Z,337.50
2022-07-31T06:02:01.472Z,354.38
2022-07-31T06:03:01.125Z,365.63
2022-07-31T06:04:01.104Z,376.88
2022-07-31T06:05:01.064Z,382.50
2022-07-31T06:06:01.040Z,376.88
2022-07-31T06:07:01.034Z,365.63
2022-07-31T06:08:01.026Z,354.38
2022-07-31T06:09:04.429Z,337.50
2022-07-31T06:10:00.980Z,320.63
2022-07-31T06:11:00.962Z,298.13
2022-07-31T06:12:01.195Z,292.50
2022-07-31T06:13:00.935Z,281.25
2022-07-31T06:14:00.925Z,275.63
2022-07-31T06:15:00.897Z,264.38
2022-07-31T06:16:00.894Z,258.75
2022-07-31T06:17:00.881Z,258.75
2022-07-31T06:18:00.884Z,264.38
2022-07-31T06:19:00.844Z,281.25
2022-07-31T06:20:00.826Z,298.13
2022-07-31T06:21:00.813Z,309.38
2022-07-31T06:22:00.790Z,320.63
2022-07-31T06:23:00.774Z,320.63
2022-07-31T06:24:00.763Z,309.38
2022-07-31T06:25:00.746Z,298.13
2022-07-31T06:26:00.733Z,292.50
2022-07-31T06:27:00.727Z,292.50
2022-07-31T06:28:01.015Z,292.50
2022-07-31T06:29:00.682Z,292.50
2022-07-31T06:30:00.674Z,292.50
2022-07-31T06:31:00.662Z,298.13
2022-07-31T06:32:00.925Z,309.38
2022-07-31T06:33:00.631Z,320.63
2022-07-31T06:34:00.613Z,326.25
2022-07-31T06:35:00.632Z,331.88
2022-07-31T06:36:00.584Z,343.13
2022-07-31T06:37:00.609Z,360.00
2022-07-31T06:38:00.554Z,365.63
2022-07-31T06:39:00.535Z,376.88
2022-07-31T06:40:00.531Z,382.50
2022-07-31T06:41:00.538Z,388.13
2022-07-31T06:42:00.667Z,388.13
2022-07-31T06:43:04.975Z,388.13
2022-07-31T06:44:00.474Z,382.50
2022-07-31T06:45:00.455Z,376.88
2022-07-31T06:46:00.451Z,371.25
2022-07-31T06:47:00.417Z,365.63
2022-07-31T06:48:00.410Z,365.63
2022-07-31T06:49:00.636Z,371.25
2022-07-31T06:50:00.379Z,371.25
2022-07-31T06:51:21.082Z,365.63
2022-07-31T06:52:00.477Z,365.63
2022-07-31T06:53:00.329Z,360.00
2022-07-31T06:54:00.314Z,360.00
2022-07-31T06:55:00.311Z,360.00
2022-07-31T06:56:00.291Z,371.25
2022-07-31T06:57:00.277Z,388.13
2022-07-31T06:58:00.255Z,405.00
2022-07-31T06:59:00.248Z,416.25
2022-07-31T07:00:03.243Z,427.50
2022-07-31T07:01:00.268Z,438.75
2022-07-31T07:02:00.207Z,438.75
2022-07-31T07:03:00.198Z,438.75
2022-07-31T07:04:00.178Z,438.75
2022-07-31T07:05:05.516Z,433.13
2022-07-31T07:06:00.159Z,433.13
2022-07-31T07:07:00.149Z,433.13
2022-07-31T07:08:00.134Z,433.13
2022-07-31T07:09:00.117Z,438.75
2022-07-31T07:10:00.109Z,444.38
2022-07-31T07:11:00.101Z,438.75
2022-07-31T07:12:00.099Z,438.75
2022-07-31T07:13:00.078Z,433.13
2022-07-31T07:14:00.059Z,427.50
2022-07-31T07:15:00.036Z,416.25
2022-07-31T07:16:00.027Z,405.00
2022-07-31T07:17:00.005Z,393.75
2022-07-31T07:17:59.994Z,393.75
2022-07-31T07:18:59.994Z,416.25
2022-07-31T07:19:59.995Z,416.25
2022-07-31T07:20:59.956Z,421.88
2022-07-31T07:21:59.966Z,427.50
2022-07-31T07:22:59.929Z,438.75
2022-07-31T07:23:59.922Z,450.00
2022-07-31T07:24:59.918Z,461.25
2022-07-31T07:25:59.900Z,466.88
2022-07-31T07:26:59.879Z,478.13
2022-07-31T07:27:59.863Z,489.38
2022-07-31T07:28:59.845Z,495.00
2022-07-31T07:29:59.843Z,495.00
2022-07-31T07:30:59.836Z,489.38
2022-07-31T07:31:59.830Z,489.38
2022-07-31T07:32:59.796Z,506.25
2022-07-31T07:33:59.795Z,506.25
2022-07-31T07:35:00.686Z,511.88
2022-07-31T07:35:59.760Z,517.50
2022-07-31T07:36:59.754Z,511.88
2022-07-31T07:37:59.737Z,517.50
2022-07-31T07:38:59.729Z,528.75
2022-07-31T07:40:04.097Z,540.00
2022-07-31T07:40:59.708Z,540.00
2022-07-31T07:41:59.684Z,540.00
2022-07-31T07:43:03.042Z,540.00
2022-07-31T07:43:59.664Z,545.63
2022-07-31T07:44:59.655Z,551.25
2022-07-31T07:45:59.677Z,562.50
2022-07-31T07:46:59.629Z,568.13
2022-07-31T07:48:06.339Z,573.75
2022-07-31T07:48:59.661Z,573.75
2022-07-31T07:49:59.593Z,573.75
2022-07-31T07:50:59.580Z,568.13
2022-07-31T07:52:00.471Z,568.13
2022-07-31T07:52:59.558Z,562.50
2022-07-31T07:53:59.552Z,556.88
2022-07-31T07:54:59.535Z,562.50
2022-07-31T07:55:59.522Z,568.13
2022-07-31T07:56:59.511Z,579.38
2022-07-31T07:57:59.496Z,590.63
2022-07-31T07:58:59.489Z,585.00
2022-07-31T07:59:59.486Z,573.75
2022-07-31T08:00:59.503Z,562.50
2022-07-31T08:01:59.453Z,579.38
2022-07-31T08:03:02.722Z,596.25
2022-07-31T08:03:59.430Z,607.50
2022-07-31T08:04:59.426Z,607.50
2022-07-31T08:05:59.426Z,607.50
2022-07-31T08:06:59.403Z,601.88
2022-07-31T08:07:59.398Z,579.38
2022-07-31T08:08:59.379Z,551.25
2022-07-31T08:09:59.364Z,545.63
2022-07-31T08:10:59.365Z,556.88
2022-07-31T08:11:59.360Z,568.13
2022-07-31T08:12:59.333Z,601.88
2022-07-31T08:13:59.327Z,641.25
2022-07-31T08:14:59.317Z,652.50
2022-07-31T08:15:59.316Z,635.63
2022-07-31T08:16:59.300Z,624.38
2022-07-31T08:17:59.283Z,630.00
2022-07-31T08:18:59.266Z,630.00
2022-07-31T08:19:59.268Z,641.25
2022-07-31T08:20:59.253Z,680.63
2022-07-31T08:21:59.236Z,686.25
2022-07-31T08:22:59.228Z,691.88
2022-07-31T08:23:59.233Z,697.50
2022-07-31T08:24:59.208Z,697.50
2022-07-31T08:25:59.223Z,691.88
2022-07-31T08:26:59.186Z,680.63
2022-07-31T08:27:59.183Z,658.13
2022-07-31T08:28:59.173Z,641.25
2022-07-31T08:29:59.183Z,669.38
2022-07-31T08:30:59.146Z,691.88
2022-07-31T08:31:59.141Z,708.75
2022-07-31T08:32:59.127Z,708.75
2022-07-31T08:33:59.119Z,680.63
2022-07-31T08:34:59.102Z,663.75
2022-07-31T08:35:59.111Z,669.38
2022-07-31T08:36:59.076Z,703.13
2022-07-31T08:38:03.395Z,736.88
2022-07-31T08:38:59.052Z,781.88
2022-07-31T08:39:59.065Z,810.00
2022-07-31T08:40:59.057Z,849.38
2022-07-31T08:41:59.025Z,838.13
2022-07-31T08:43:01.133Z,810.00
2022-07-31T08:44:02.437Z,821.25
2022-07-31T08:44:58.992Z,826.88
2022-07-31T08:45:58.987Z,793.13
2022-07-31T08:46:58.980Z,781.88
2022-07-31T08:47:58.976Z,753.75
2022-07-31T08:48:58.994Z,736.88
2022-07-31T08:49:58.950Z,703.13
2022-07-31T08:50:58.943Z,697.50
2022-07-31T08:51:58.931Z,720.00
2022-07-31T08:52:58.926Z,708.75
2022-07-31T08:53:58.915Z,663.75
2022-07-31T08:54:58.910Z,635.63
2022-07-31T08:55:58.885Z,630.00
2022-07-31T08:56:58.891Z,613.13
2022-07-31T08:57:58.874Z,613.13
2022-07-31T08:58:58.861Z,613.13
2022-07-31T08:59:58.870Z,601.88
2022-07-31T09:00:58.904Z,585.00
2022-07-31T09:01:58.831Z,579.38
2022-07-31T09:02:58.822Z,585.00
2022-07-31T09:03:58.816Z,607.50
2022-07-31T09:04:58.803Z,646.88
2022-07-31T09:05:58.786Z,675.00
2022-07-31T09:06:58.797Z,703.13
2022-07-31T09:07:58.799Z,675.00
2022-07-31T09:08:58.759Z,630.00
2022-07-31T09:09:58.747Z,624.38
2022-07-31T09:10:58.739Z,635.63
2022-07-31T09:11:58.737Z,641.25
2022-07-31T09:12:58.724Z,624.38
2022-07-31T09:14:01.998Z,635.63
2022-07-31T09:14:58.704Z,686.25
2022-07-31T09:15:58.694Z,736.88
2022-07-31T09:16:58.689Z,810.00
2022-07-31T09:17:58.682Z,832.50
2022-07-31T09:18:58.668Z,855.00
2022-07-31T09:19:58.674Z,950.63
2022-07-31T09:20:58.658Z,978.75
2022-07-31T09:21:58.653Z,945.00
2022-07-31T09:22:58.637Z,933.75
2022-07-31T09:23:58.615Z,911.25
2022-07-31T09:24:58.626Z,883.13
2022-07-31T09:25:58.592Z,866.25
2022-07-31T09:26:58.587Z,883.13
2022-07-31T09:27:58.582Z,900.00
2022-07-31T09:28:58.569Z,855.00
2022-07-31T09:29:58.559Z,815.63
2022-07-31T09:30:58.570Z,765.00
2022-07-31T09:31:58.542Z,697.50
2022-07-31T09:32:58.543Z,624.38
2022-07-31T09:33:58.525Z,551.25
2022-07-31T09:34:58.514Z,528.75
2022-07-31T09:35:58.507Z,590.63
2022-07-31T09:36:58.496Z,675.00
2022-07-31T09:37:58.525Z,787.50
2022-07-31T09:38:58.481Z,815.63
2022-07-31T09:39:58.470Z,826.88
2022-07-31T09:40:58.461Z,838.13
2022-07-31T09:42:01.888Z,832.50
2022-07-31T09:42:58.452Z,776.25
2022-07-31T09:43:58.469Z,770.63
2022-07-31T09:44:58.458Z,776.25
2022-07-31T09:45:58.422Z,770.63
2022-07-31T09:46:58.404Z,770.63
2022-07-31T09:47:58.394Z,770.63
2022-07-31T09:49:00.160Z,787.50
2022-07-31T09:49:58.394Z,787.50
2022-07-31T09:50:58.370Z,759.38
2022-07-31T09:51:58.363Z,759.38
2022-07-31T09:52:58.352Z,793.13
2022-07-31T09:53:58.342Z,821.25
2022-07-31T09:54:58.342Z,826.88
2022-07-31T09:55:58.330Z,843.75
2022-07-31T09:56:58.332Z,900.00
2022-07-31T09:57:58.320Z,961.88
2022-07-31T09:58:58.308Z,995.63
2022-07-31T09:59:58.292Z,995.63
2022-07-31T10:00:58.327Z,995.63
2022-07-31T10:01:58.289Z,1029.38
2022-07-31T10:02:58.276Z,1074.38
2022-07-31T10:03:58.264Z,1102.50
2022-07-31T10:04:58.251Z,1091.25
2022-07-31T10:05:58.794Z,1074.38
2022-07-31T10:06:58.236Z,1074.38
2022-07-31T10:07:58.261Z,1074.38
2022-07-31T10:08:58.267Z,1080.00
2022-07-31T10:09:58.217Z,1080.00
2022-07-31T10:10:58.211Z,1068.75
2022-07-31T10:11:58.209Z,1040.63
2022-07-31T10:12:58.193Z,1035.00
2022-07-31T10:13:58.184Z,1040.63
2022-07-31T10:14:58.177Z,1023.75
2022-07-31T10:15:58.177Z,984.38
2022-07-31T10:16:58.167Z,956.25
2022-07-31T10:17:58.181Z,967.50
2022-07-31T10:18:58.155Z,950.63
2022-07-31T10:19:58.170Z,928.13
2022-07-31T10:20:58.316Z,905.63
2022-07-31T10:21:58.150Z,905.63
2022-07-31T10:22:58.149Z,922.50
2022-07-31T10:23:58.180Z,928.13
2022-07-31T10:24:58.104Z,933.75
2022-07-31T10:25:58.096Z,911.25
2022-07-31T10:27:00.715Z,911.25
2022-07-31T10:27:58.088Z,939.38
2022-07-31T10:28:58.084Z,950.63
2022-07-31T10:29:58.080Z,939.38
2022-07-31T10:30:58.068Z,939.38
2022-07-31T10:31:58.054Z,916.88
2022-07-31T10:32:58.039Z,922.50
2022-07-31T10:33:58.040Z,933.75
2022-07-31T10:34:58.027Z,945.00
2022-07-31T10:35:58.017Z,961.88
2022-07-31T10:36:58.007Z,967.50
2022-07-31T10:37:58.007Z,973.13
2022-07-31T10:38:57.991Z,984.38
2022-07-31T10:39:57.982Z,1012.50
2022-07-31T10:40:57.975Z,1046.25
2022-07-31T10:41:57.962Z,1063.13
2022-07-31T10:42:57.954Z,1068.75
2022-07-31T10:43:58.044Z,1063.13
2022-07-31T10:44:57.936Z,1040.63
2022-07-31T10:45:57.931Z,1012.50
2022-07-31T10:46:57.927Z,1006.88
2022-07-31T10:47:57.936Z,1012.50
2022-07-31T10:48:57.964Z,1029.38
2022-07-31T10:49:57.899Z,1068.75
2022-07-31T10:50:57.889Z,1113.75
2022-07-31T10:51:57.893Z,1220.63
2022-07-31T10:53:00.697Z,1186.88
2022-07-31T10:53:57.866Z,1198.13
2022-07-31T10:54:57.856Z,1198.13
2022-07-31T10:55:57.843Z,1181.25
2022-07-31T10:56:57.836Z,1136.25
2022-07-31T10:57:57.851Z,1102.50
2022-07-31T10:58:57.828Z,1085.63
2022-07-31T10:59:57.811Z,1080.00
2022-07-31T11:00:57.799Z,1051.88
2022-07-31T11:01:57.827Z,1018.13
2022-07-31T11:02:57.800Z,967.50
2022-07-31T11:03:57.785Z,950.63
2022-07-31T11:04:59.195Z,973.13
2022-07-31T11:06:01.614Z,1012.50
2022-07-31T11:06:57.765Z,1051.88
2022-07-31T11:07:57.765Z,1091.25
2022-07-31T11:08:57.758Z,1136.25
2022-07-31T11:09:57.733Z,1158.75
2022-07-31T11:10:57.723Z,1237.50
2022-07-31T11:11:57.721Z,1265.63
2022-07-31T11:12:57.719Z,1316.25
2022-07-31T11:13:57.698Z,1530.00
2022-07-31T11:14:57.692Z,1912.50
2022-07-31T11:15:57.694Z,1440.00
2022-07-31T11:16:57.696Z,1558.13
2022-07-31T11:18:21.915Z,1608.75
2022-07-31T11:18:57.659Z,1642.50
2022-07-31T11:19:57.656Z,1411.88
2022-07-31T11:20:57.646Z,1456.88
2022-07-31T11:21:57.646Z,1586.25
2022-07-31T11:22:57.650Z,1940.63
2022-07-31T11:24:03.877Z,2480.63
2022-07-31T11:24:57.614Z,2075.63
2022-07-31T11:25:57.610Z,2238.75
2022-07-31T11:26:57.609Z,2401.88
2022-07-31T11:27:57.601Z,1569.38
2022-07-31T11:28:57.594Z,1462.50
2022-07-31T11:29:58.837Z,1485.00
2022-07-31T11:30:57.577Z,1670.63
2022-07-31T11:31:57.569Z,1935.00
2022-07-31T11:32:57.563Z,1181.25
2022-07-31T11:33:57.590Z,1018.13
2022-07-31T11:34:57.593Z,956.25
2022-07-31T11:35:57.549Z,956.25
2022-07-31T11:36:57.543Z,1023.75
2022-07-31T11:37:58.305Z,1186.88
2022-07-31T11:38:57.529Z,1018.13
2022-07-31T11:39:57.518Z,1001.25
2022-07-31T11:40:57.520Z,1040.63
2022-07-31T11:41:57.517Z,1006.88
2022-07-31T11:43:24.767Z,956.25
2022-07-31T11:43:57.495Z,916.88
2022-07-31T11:44:57.496Z,916.88
2022-07-31T11:45:57.490Z,928.13
2022-07-31T11:46:57.468Z,961.88
2022-07-31T11:48:11.464Z,967.50
2022-07-31T11:48:57.503Z,990.00
2022-07-31T11:49:57.484Z,1057.50
2022-07-31T11:50:57.485Z,1147.50
2022-07-31T11:51:57.432Z,1203.75
2022-07-31T11:52:57.473Z,2233.13
2022-07-31T11:53:57.878Z,4303.13
2022-07-31T11:54:57.419Z,2700.00
2022-07-31T11:55:57.425Z,3532.50
2022-07-31T11:56:57.402Z,3892.50
2022-07-31T11:57:57.390Z,3965.63
2022-07-31T11:58:57.411Z,4190.63
2022-07-31T11:59:57.386Z,4218.75
2022-07-31T12:00:57.394Z,4089.38
2022-07-31T12:01:57.376Z,4117.50
2022-07-31T12:02:57.516Z,4252.50
2022-07-31T12:03:57.370Z,4241.25
2022-07-31T12:04:57.359Z,4269.38
2022-07-31T12:05:57.359Z,4291.88
2022-07-31T12:06:57.367Z,4325.63
2022-07-31T12:07:57.359Z,4415.63
2022-07-31T12:08:57.380Z,4449.38
2022-07-31T12:10:00.925Z,4387.50
2022-07-31T12:10:57.349Z,4359.38
2022-07-31T12:11:57.353Z,4404.38
2022-07-31T12:12:57.357Z,4398.75
2022-07-31T12:13:57.345Z,3071.25
2022-07-31T12:14:57.348Z,2278.13
2022-07-31T12:15:57.363Z,1687.50
2022-07-31T12:16:57.359Z,1771.88
2022-07-31T12:17:57.358Z,1535.63
2022-07-31T12:18:57.353Z,1310.63
2022-07-31T12:19:58.132Z,2373.75
2022-07-31T12:20:57.345Z,4246.88
2022-07-31T12:21:57.349Z,3352.50
2022-07-31T12:22:57.347Z,4325.63
2022-07-31T12:23:57.341Z,4168.13
2022-07-31T12:24:57.345Z,4151.25
2022-07-31T12:25:57.338Z,3768.75
2022-07-31T12:26:57.341Z,1732.50
2022-07-31T12:27:57.336Z,2435.63
2022-07-31T12:28:57.340Z,2030.63
2022-07-31T12:29:57.351Z,1698.75
2022-07-31T12:30:57.361Z,1406.25
2022-07-31T12:31:57.347Z,1085.63
2022-07-31T12:32:57.326Z,1867.50
2022-07-31T12:33:57.329Z,1080.00
2022-07-31T12:34:57.335Z,1046.25
2022-07-31T12:35:57.432Z,1648.13
2022-07-31T12:36:57.316Z,3110.63
2022-07-31T12:37:57.315Z,4106.25
2022-07-31T12:38:57.307Z,3813.75
2022-07-31T12:40:00.724Z,2424.38